Time;durP1;ratioP1;P1;durP2;ratioP2;P2;SDS_P1;SDS_P2;PMS_P1;PMS_P2;Temp;Humidity;BMP_temperature;BMP_pressure;BME280_temperature;BME280_humidity;BME280_pressure;Samples;Min_cycle;Max_cycle;Signal;HPM_P1;HPM_P2
2021/12/07 00:00:34;;;;;;;6.55;5.42;;;;;;;9.93;52.24;98908.30;1816383;78;21580;-61
2021/12/07 00:03:00;;;;;;;6.65;5.17;;;;;;;9.93;52.23;98906.97;1800973;77;21072;-62
2021/12/07 00:05:27;;;;;;;6.80;5.17;;;;;;;9.93;52.24;98909.14;1793731;79;21565;-62
2021/12/07 00:07:53;;;;;;;6.15;4.95;;;;;;;9.93;52.27;98905.16;1805851;78;20986;-62
2021/12/07 00:10:21;;;;;;;5.87;5.03;;;;;;;9.93;52.24;98911.80;1784643;79;21299;-61
2021/12/07 00:12:48;;;;;;;6.45;5.70;;;;;;;9.94;52.23;98912.61;1800804;79;21268;-61
2021/12/07 00:15:17;;;;;;;6.70;5.33;;;;;;;9.94;52.23;98912.09;1803935;79;21026;-60
2021/12/07 00:17:44;;;;;;;7.10;5.90;;;;;;;9.94;52.24;98908.63;1801025;78;20987;-62
2021/12/07 00:20:14;;;;;;;5.90;5.28;;;;;;;9.95;52.23;98901.00;1793666;78;21486;-60
2021/12/07 00:22:41;;;;;;;6.03;4.90;;;;;;;9.95;52.23;98897.03;1799295;79;21073;-61
2021/12/07 00:25:09;;;;;;;7.40;5.85;;;;;;;9.96;52.24;98907.42;1798927;78;21017;-60
2021/12/07 00:27:35;;;;;;;6.42;4.97;;;;;;;9.95;52.22;98913.76;1800439;78;21010;-61
2021/12/07 00:30:08;;;;;;;6.95;5.42;;;;;;;9.96;52.23;98914.06;1787871;78;21501;-60
2021/12/07 00:32:40;;;;;;;7.30;5.67;;;;;;;9.97;52.22;98922.87;1792310;78;21022;-60
2021/12/07 00:37:55;;;;;;;6.55;5.62;;;;;;;9.97;52.21;98913.06;1789745;78;21010;-61
2021/12/07 00:40:22;;;;;;;5.58;4.95;;;;;;;9.96;52.24;98906.10;1790475;79;21058;-59
2021/12/07 00:42:49;;;;;;;6.70;5.97;;;;;;;9.96;52.26;98915.39;1797534;78;21521;-60
2021/12/07 00:45:20;;;;;;;5.97;5.10;;;;;;;9.96;52.27;98908.75;1802059;77;20990;-61
2021/12/07 00:47:48;;;;;;;7.28;5.90;;;;;;;9.96;52.27;98910.59;1803305;78;22396;-61
2021/12/07 00:50:16;;;;;;;5.62;5.03;;;;;;;9.96;52.27;98910.08;1811603;79;20995;-60
2021/12/07 00:52:43;;;;;;;7.83;5.92;;;;;;;9.96;52.28;98907.42;1797439;78;21588;-60
2021/12/07 00:55:14;;;;;;;7.03;5.90;;;;;;;9.96;52.28;98910.08;1803162;79;21053;-61
2021/12/07 00:57:41;;;;;;;6.85;5.62;;;;;;;9.97;52.28;98915.72;1789916;78;21011;-61
2021/12/07 01:00:12;;;;;;;6.58;5.60;;;;;;;9.97;52.28;98924.20;1792515;79;21175;-61
2021/12/07 01:02:38;;;;;;;6.33;5.50;;;;;;;9.97;52.29;98918.37;1810634;79;22274;-61
2021/12/07 01:05:17;;;;;;;8.30;6.80;;;;;;;9.97;52.30;98913.06;1805459;78;21042;-60
2021/12/07 01:26:22;;;;;;;9.28;6.95;;;;;;;9.97;52.38;98917.56;1790133;78;21110;-61
2021/12/07 01:28:49;;;;;;;8.15;6.28;;;;;;;9.96;52.43;98919.37;1810695;78;20998;-60
2021/12/07 01:31:47;;;;;;;9.00;6.95;;;;;;;9.96;52.42;98905.28;1800490;77;21030;-61
2021/12/07 01:34:20;;;;;;;7.30;5.75;;;;;;;9.97;52.45;98906.44;1804132;78;21081;-60
2021/12/07 01:44:46;;;;;;;8.73;6.58;;;;;;;9.97;52.48;98913.06;1817302;78;21001;-62
2021/12/07 01:52:36;;;;;;;8.25;6.45;;;;;;;9.98;52.51;98925.31;1816396;78;21181;-61
2021/12/07 01:59:32;;;;;;;8.65;6.65;;;;;;;9.97;52.52;98925.01;1814419;78;21513;-60
2021/12/07 02:00:26;;;;;;;6.58;5.90;;;;;;;9.98;52.53;98917.86;1803219;78;20994;-60
2021/12/07 02:02:53;;;;;;;7.58;6.67;;;;;;;9.97;52.52;98913.06;1801993;78;20970;-61
2021/12/07 02:05:19;;;;;;;7.47;6.17;;;;;;;9.97;52.54;98911.74;1810021;78;21474;-62
2021/12/07 02:07:46;;;;;;;10.13;6.70;;;;;;;9.99;52.57;98911.56;1818829;78;21006;-62
2021/12/07 02:10:18;;;;;;;8.68;6.22;;;;;;;10.00;52.56;98917.17;1807814;78;21026;-62
2021/12/07 02:12:44;;;;;;;8.20;6.50;;;;;;;10.00;52.55;98919.31;1813290;77;21585;-61
2021/12/07 02:15:15;;;;;;;7.75;5.90;;;;;;;10.01;52.54;98910.87;1805595;78;21054;-62
2021/12/07 02:17:43;;;;;;;8.23;6.58;;;;;;;10.00;52.55;98910.03;1818356;78;21042;-61
2021/12/07 02:20:10;;;;;;;7.15;6.25;;;;;;;10.01;52.53;98919.65;1803064;78;21068;-62
2021/12/07 02:22:37;;;;;;;8.78;6.42;;;;;;;10.03;52.54;98924.27;1801394;78;21037;-62
2021/12/07 02:25:05;;;;;;;8.53;6.85;;;;;;;10.03;52.54;98923.45;1808156;78;21065;-61
2021/12/07 02:27:32;;;;;;;9.08;6.72;;;;;;;10.04;52.53;98929.91;1799978;78;21056;-64
2021/12/07 02:29:58;;;;;;;6.58;5.83;;;;;;;10.04;52.53;98929.91;1819365;77;21627;-60
2021/12/07 02:32:26;;;;;;;7.22;6.53;;;;;;;10.06;52.52;98923.58;1820383;78;21057;-61
2021/12/07 02:34:59;;;;;;;7.25;6.33;;;;;;;10.06;52.53;98931.53;1796040;79;21533;-60
2021/12/07 02:37:25;;;;;;;7.28;5.65;;;;;;;10.07;52.53;98943.81;1806245;78;21041;-62
2021/12/07 02:39:52;;;;;;;7.25;5.85;;;;;;;10.07;52.55;98944.63;1805692;77;21060;-61
2021/12/07 02:42:19;;;;;;;8.65;5.97;;;;;;;10.08;52.51;98945.44;1801008;78;21312;-61
2021/12/07 02:44:46;;;;;;;8.43;6.35;;;;;;;10.09;52.51;98948.44;1815953;77;21010;-60
2021/12/07 02:47:13;;;;;;;8.15;6.40;;;;;;;10.09;52.51;98939.14;1826343;77;20963;-61
2021/12/07 02:49:41;;;;;;;6.65;5.58;;;;;;;10.09;52.50;98931.18;1795934;78;21033;-61
2021/12/07 02:52:07;;;;;;;7.62;5.70;;;;;;;10.10;52.49;98931.48;1820864;77;21522;-61
2021/12/07 02:54:36;;;;;;;6.47;5.78;;;;;;;10.10;52.49;98934.14;1823416;78;21143;-61
2021/12/07 02:57:06;;;;;;;8.08;6.22;;;;;;;10.09;52.50;98939.95;1816611;78;21037;-61
2021/12/07 02:59:33;;;;;;;6.42;5.47;;;;;;;10.11;52.49;98934.47;1798361;78;21561;-61
2021/12/07 03:02:05;;;;;;;7.70;6.00;;;;;;;10.10;52.52;98928.34;1799309;78;21060;-61
2021/12/07 03:04:39;;;;;;;6.25;5.25;;;;;;;10.12;52.48;98929.47;1794889;78;21001;-61
2021/12/07 03:07:15;;;;;;;6.72;5.45;;;;;;;10.11;52.48;98934.47;1807103;78;20997;-61
2021/12/07 03:26:02;;;;;;;8.08;6.30;;;;;;;10.09;52.54;98907.30;1804655;78;21520;-61
2021/12/07 03:28:22;;;;;;;7.75;6.45;;;;;;;10.08;52.56;98910.43;1795822;78;21052;-62
2021/12/07 03:30:49;;;;;;;7.42;5.87;;;;;;;10.08;52.58;98918.91;1818336;77;21059;-60
2021/12/07 03:33:15;;;;;;;6.60;5.53;;;;;;;10.08;52.57;98920.23;1821002;78;21807;-61
2021/12/07 03:35:44;;;;;;;7.45;5.45;;;;;;;10.09;52.58;98919.23;1797282;78;21517;-60
2021/12/07 03:38:11;;;;;;;7.12;6.00;;;;;;;10.08;52.60;98918.91;1824236;78;21056;-61
2021/12/07 03:40:38;;;;;;;6.17;5.35;;;;;;;10.08;52.59;98920.23;1800757;78;21072;-61
2021/12/07 03:43:05;;;;;;;7.75;5.78;;;;;;;10.09;52.58;98923.22;1793682;78;21083;-60
2021/12/07 03:45:32;;;;;;;6.67;5.75;;;;;;;10.09;52.58;98924.03;1810870;78;21102;-63
2021/12/07 03:48:02;;;;;;;7.80;6.25;;;;;;;10.10;52.61;98932.81;1815086;77;21014;-61
2021/12/07 03:50:28;;;;;;;7.28;5.83;;;;;;;10.10;52.61;98942.95;1824617;77;21518;-61
2021/12/07 03:52:55;;;;;;;7.17;5.85;;;;;;;10.10;52.60;98940.30;1804180;78;20998;-61
2021/12/07 03:55:22;;;;;;;8.00;5.85;;;;;;;10.11;52.58;98949.88;1813525;78;21092;-61
2021/12/07 03:57:48;;;;;;;6.53;5.50;;;;;;;10.12;52.57;98954.67;1815140;77;22931;-62
2021/12/07 04:00:20;;;;;;;7.62;5.72;;;;;;;10.12;52.59;98957.33;1794417;78;21006;-62
2021/12/07 04:02:49;;;;;;;7.25;5.65;;;;;;;10.12;52.57;98958.66;1815746;78;21112;-61
2021/12/07 04:05:18;;;;;;;7.30;5.53;;;;;;;10.12;52.58;98955.52;1810638;78;22004;-60
2021/12/07 04:07:45;;;;;;;6.42;5.83;;;;;;;10.13;52.55;98969.61;1821348;78;21001;-61
2021/12/07 04:10:14;;;;;;;7.15;5.70;;;;;;;10.10;52.57;98968.64;1815203;78;21142;-60
2021/12/07 04:12:42;;;;;;;5.97;5.17;;;;;;;10.12;52.57;98973.25;1820144;78;21060;-60
2021/12/07 04:15:11;;;;;;;6.58;5.75;;;;;;;10.13;52.56;98973.08;1815508;78;21517;-61
2021/12/07 04:17:38;;;;;;;7.47;6.00;;;;;;;10.14;52.56;98971.23;1811377;77;21053;-61
2021/12/07 04:20:09;;;;;;;6.65;5.80;;;;;;;10.15;52.53;98972.91;1805389;78;21482;-60
2021/12/07 04:22:36;;;;;;;6.17;5.58;;;;;;;10.14;52.54;98967.27;1800578;78;21756;-62
2021/12/07 04:25:07;;;;;;;6.95;6.10;;;;;;;10.14;52.55;98967.27;1805233;78;21064;-62
2021/12/07 04:27:38;;;;;;;7.92;6.17;;;;;;;10.14;52.54;98978.72;1754864;81;21029;-61
2021/12/07 04:30:05;;;;;;;8.35;6.35;;;;;;;10.14;52.54;98981.86;1769858;81;21019;-62
2021/12/07 04:32:31;;;;;;;7.03;5.90;;;;;;;10.14;52.55;98981.86;1749674;81;21057;-60
2021/12/07 04:34:58;;;;;;;6.20;5.10;;;;;;;10.14;52.53;98988.02;1762983;80;21828;-62
2021/12/07 04:37:25;;;;;;;6.92;5.92;;;;;;;10.15;52.53;98990.97;1771478;80;21096;-61
2021/12/07 04:39:51;;;;;;;7.65;6.25;;;;;;;10.15;52.56;98971.58;1763431;81;21019;-60
2021/12/07 04:42:17;;;;;;;7.53;6.25;;;;;;;10.15;52.54;98968.92;1758971;81;21116;-61
2021/12/07 04:44:52;;;;;;;6.95;6.05;;;;;;;10.15;52.52;98960.95;1752821;80;21154;-62
2021/12/07 04:47:20;;;;;;;7.53;6.00;;;;;;;10.15;52.54;98970.25;1760141;80;21148;-61
2021/12/07 04:57:55;;;;;;;8.13;7.05;;;;;;;10.15;52.53;98987.50;1770198;80;21542;-61
2021/12/07 05:00:26;;;;;;;7.72;5.92;;;;;;;10.13;52.55;98990.84;1763039;81;21136;-61
2021/12/07 05:03:06;;;;;;;7.62;6.08;;;;;;;10.13;52.58;98996.16;1760283;80;21049;-61
2021/12/07 05:05:23;;;;;;;7.33;6.37;;;;;;;10.13;52.58;98996.16;1746010;81;21082;-61
2021/12/07 05:07:53;;;;;;;7.62;6.37;;;;;;;10.13;52.59;98992.17;1757656;80;21038;-61
2021/12/07 05:10:25;;;;;;;7.78;6.55;;;;;;;10.13;52.59;99003.60;1760753;80;21074;-61
2021/12/07 05:15:33;;;;;;;7.83;6.70;;;;;;;10.13;52.59;99014.22;1764247;81;21028;-61
2021/12/07 05:39:34;;;;;;;7.28;5.70;;;;;;;10.10;52.70;99023.05;1749152;80;21105;-61
2021/12/07 05:42:01;;;;;;;8.30;6.60;;;;;;;10.08;52.67;99020.56;1750133;81;21070;-61
2021/12/07 05:44:27;;;;;;;6.58;5.55;;;;;;;10.08;52.70;99035.16;1743848;81;21122;-61
2021/12/07 05:46:54;;;;;;;6.70;6.00;;;;;;;10.09;52.71;99033.36;1800310;78;21506;-62
2021/12/07 05:49:20;;;;;;;7.58;6.42;;;;;;;10.09;52.70;99039.98;1787112;79;21081;-60
2021/12/07 05:51:47;;;;;;;7.92;6.85;;;;;;;10.09;52.67;99035.50;1796707;77;21855;-63
2021/12/07 05:54:13;;;;;;;7.80;6.50;;;;;;;10.09;52.69;99016.10;1805334;79;20986;-62
2021/12/07 05:56:40;;;;;;;8.00;6.78;;;;;;;10.10;52.68;99009.30;1790477;78;21565;-61
2021/12/07 05:59:06;;;;;;;6.90;6.20;;;;;;;10.10;52.67;99003.98;1812031;79;21024;-60
2021/12/07 06:01:32;;;;;;;7.80;6.20;;;;;;;10.12;52.67;98999.80;1805367;78;21568;-62
2021/12/07 06:03:59;;;;;;;7.00;6.30;;;;;;;10.11;52.63;98989.69;1811086;78;21087;-62
2021/12/07 06:06:25;;;;;;;8.53;6.85;;;;;;;10.12;52.64;98987.37;1813412;77;21525;-62
2021/12/07 06:08:51;;;;;;;7.53;6.40;;;;;;;10.12;52.63;98992.68;1804605;78;21026;-61
2021/12/07 06:11:22;;;;;;;8.78;6.20;;;;;;;10.13;52.62;98986.86;1802179;79;21057;-62
2021/12/07 06:13:48;;;;;;;7.28;6.45;;;;;;;10.11;52.61;98986.22;1794675;79;21101;-61
2021/12/07 06:16:16;;;;;;;8.25;6.85;;;;;;;10.13;52.61;98996.97;1798130;78;21174;-60
2021/12/07 06:18:43;;;;;;;7.42;6.37;;;;;;;10.13;52.60;99000.13;1809633;78;21049;-61
2021/12/07 06:21:11;;;;;;;7.55;6.60;;;;;;;10.14;52.59;99000.44;1793761;79;21142;-62
2021/12/07 06:23:39;;;;;;;8.15;6.53;;;;;;;10.14;52.59;99007.07;1799141;78;21074;-61
2021/12/07 06:26:06;;;;;;;8.50;7.50;;;;;;;10.14;52.59;99011.90;1797774;78;21069;-61
2021/12/07 06:28:32;;;;;;;9.30;7.58;;;;;;;10.14;52.60;99011.90;1798309;77;21109;-62
2021/12/07 06:30:58;;;;;;;10.93;8.90;;;;;;;10.14;52.60;99005.74;1791699;78;21061;-63
2021/12/07 06:33:26;;;;;;;8.18;7.37;;;;;;;10.15;52.58;99003.42;1793141;79;21003;-62
2021/12/07 06:35:57;;;;;;;9.58;8.38;;;;;;;10.14;52.60;99006.59;1809400;79;21085;-61
2021/12/07 06:38:28;;;;;;;10.50;8.83;;;;;;;10.14;52.59;99011.90;1803050;78;21105;-61
2021/12/07 06:40:55;;;;;;;11.65;9.05;;;;;;;10.16;52.58;99019.66;1807513;77;21109;-62
2021/12/07 06:43:22;;;;;;;9.40;8.50;;;;;;;10.15;52.57;99023.33;1824468;78;22010;-62
2021/12/07 06:45:49;;;;;;;10.55;8.70;;;;;;;10.16;52.58;99026.28;1798655;78;21055;-62
2021/12/07 06:48:16;;;;;;;11.50;9.65;;;;;;;10.16;52.57;99029.79;1809966;78;21048;-61
2021/12/07 06:50:42;;;;;;;10.75;9.18;;;;;;;10.14;52.56;99024.33;1799117;78;21021;-63
2021/12/07 06:53:09;;;;;;;10.55;8.65;;;;;;;10.17;52.60;99031.93;1820005;78;23243;-61
2021/12/07 06:55:36;;;;;;;9.70;8.63;;;;;;;10.17;52.58;99035.91;1811320;78;20998;-61
2021/12/07 06:58:03;;;;;;;10.05;8.78;;;;;;;10.17;52.56;99034.59;1813910;78;21536;-62
2021/12/07 07:00:31;;;;;;;10.23;9.00;;;;;;;10.17;52.56;99040.71;1822704;78;21506;-62
2021/12/07 07:02:58;;;;;;;11.75;9.40;;;;;;;10.17;52.57;99051.33;1814423;78;21002;-62
2021/12/07 07:05:24;;;;;;;9.28;8.25;;;;;;;10.18;52.57;99047.69;1824435;78;21077;-60
2021/12/07 07:07:50;;;;;;;9.95;8.95;;;;;;;10.17;52.58;99049.19;1812102;78;21087;-61
2021/12/07 07:10:18;;;;;;;9.88;8.43;;;;;;;10.17;52.58;99046.02;1817005;77;21057;-61
2021/12/07 07:12:46;;;;;;;7.62;6.83;;;;;;;10.17;52.56;99053.98;1834683;77;20974;-61
2021/12/07 07:15:12;;;;;;;8.88;7.97;;;;;;;10.18;52.57;99061.47;1804501;78;21076;-65
2021/12/07 07:17:39;;;;;;;10.23;8.18;;;;;;;10.18;52.57;99063.61;1799982;78;21136;-62
2021/12/07 07:20:09;;;;;;;8.28;6.70;;;;;;;10.19;52.56;99068.41;1818169;78;20998;-62
2021/12/07 07:22:36;;;;;;;9.08;8.03;;;;;;;10.18;52.56;99057.48;1811568;78;20981;-61
2021/12/07 07:25:04;;;;;;;9.95;8.15;;;;;;;10.19;52.57;99069.22;1817333;78;21601;-62
2021/12/07 07:27:31;;;;;;;8.80;7.90;;;;;;;10.19;52.55;99070.55;1808805;78;21104;-62
2021/12/07 07:29:58;;;;;;;9.88;7.85;;;;;;;10.20;52.56;99067.41;1811134;78;22169;-62
2021/12/07 07:32:25;;;;;;;9.00;8.00;;;;;;;10.19;52.55;99074.53;1801461;78;21033;-62
2021/12/07 07:34:51;;;;;;;8.08;7.28;;;;;;;10.20;52.56;99082.83;1814841;78;21056;-61
2021/12/07 07:37:17;;;;;;;9.48;7.87;;;;;;;10.21;52.54;99084.45;1796176;78;21072;-64
2021/12/07 07:39:44;;;;;;;8.65;7.35;;;;;;;10.22;52.55;99084.80;1804602;78;21100;-62
2021/12/07 07:42:10;;;;;;;8.98;8.00;;;;;;;10.19;52.54;99081.16;1800408;78;21117;-62
2021/12/07 07:44:50;;;;;;;8.70;7.62;;;;;;;10.23;52.55;99084.28;1812334;78;21005;-62
2021/12/07 07:47:16;;;;;;;8.08;7.08;;;;;;;10.21;52.53;99079.66;1799496;78;21029;-61
2021/12/07 07:49:42;;;;;;;8.80;7.60;;;;;;;10.23;52.54;99092.25;1800170;78;21545;-61
2021/12/07 07:52:09;;;;;;;10.72;7.72;;;;;;;10.23;52.54;99094.91;1811767;78;21084;-62
2021/12/07 07:54:36;;;;;;;8.80;7.20;;;;;;;10.23;52.53;99085.09;1811261;78;21136;-61
2021/12/07 07:57:02;;;;;;;7.60;6.42;;;;;;;10.24;52.54;99088.60;1797901;78;21646;-62
2021/12/07 07:59:30;;;;;;;7.95;6.95;;;;;;;10.24;52.72;99099.22;1815579;77;21010;-62
2021/12/07 08:01:56;;;;;;;8.65;7.25;;;;;;;10.26;52.76;99097.69;1815055;77;21553;-61
2021/12/07 08:04:22;;;;;;;8.68;6.97;;;;;;;10.27;52.78;99092.72;1813002;77;21033;-62
2021/12/07 08:06:49;;;;;;;7.58;6.78;;;;;;;10.26;52.79;99091.90;1815674;78;22343;-61
2021/12/07 08:09:16;;;;;;;7.35;6.20;;;;;;;10.27;52.78;99086.08;1809840;78;21089;-62
2021/12/07 08:11:42;;;;;;;7.03;6.25;;;;;;;10.27;52.78;99086.89;1820499;78;20997;-62
2021/12/07 08:14:08;;;;;;;6.72;5.97;;;;;;;10.26;52.78;99093.23;1811421;78;21013;-61
2021/12/07 08:16:35;;;;;;;7.87;6.45;;;;;;;10.27;52.74;99093.53;1820608;77;21056;-63
2021/12/07 08:19:02;;;;;;;7.42;6.53;;;;;;;10.28;52.73;99093.05;1821135;77;21142;-61
2021/12/07 08:21:29;;;;;;;7.47;6.35;;;;;;;10.28;52.73;99088.55;1811962;78;21005;-62
2021/12/07 08:23:56;;;;;;;6.70;6.00;;;;;;;10.28;52.72;99088.55;1813573;77;21013;-61
2021/12/07 08:26:23;;;;;;;6.75;6.05;;;;;;;10.28;52.70;99080.59;1794083;78;21032;-63
2021/12/07 08:28:51;;;;;;;6.60;5.90;;;;;;;10.29;52.67;99068.95;1823995;77;21025;-63
2021/12/07 08:31:18;;;;;;;7.25;5.90;;;;;;;10.29;52.67;99070.27;1814149;78;22075;-61
2021/12/07 08:33:44;;;;;;;7.60;6.22;;;;;;;10.29;52.64;99082.23;1807254;78;21025;-62
2021/12/07 08:36:11;;;;;;;6.75;5.97;;;;;;;10.30;52.63;99081.27;1823763;77;21111;-61
2021/12/07 08:38:38;;;;;;;7.70;6.33;;;;;;;10.30;52.61;99093.21;1797740;78;21218;-62
2021/12/07 08:41:05;;;;;;;7.35;6.25;;;;;;;10.30;52.62;99094.54;1810812;77;21044;-63
2021/12/07 08:43:35;;;;;;;6.65;5.97;;;;;;;10.31;52.60;99099.34;1802843;78;21957;-62
2021/12/07 08:46:03;;;;;;;7.05;5.85;;;;;;;10.27;52.60;99085.56;1807416;78;21032;-61
2021/12/07 08:48:29;;;;;;;7.08;5.95;;;;;;;10.29;52.60;99084.88;1819949;78;21008;-63
2021/12/07 08:50:56;;;;;;;7.25;6.00;;;;;;;10.31;52.59;99089.53;1817462;77;21049;-63
2021/12/07 08:53:23;;;;;;;6.75;6.03;;;;;;;10.30;52.58;99086.57;1812379;78;21001;-61
2021/12/07 09:01:22;;;;;;;7.80;5.97;;;;;;;10.31;52.55;99095.35;1809912;78;21265;-63
2021/12/07 09:03:49;;;;;;;6.72;5.60;;;;;;;10.30;52.54;99103.83;1822679;78;21029;-61
2021/12/07 09:06:16;;;;;;;6.25;5.58;;;;;;;10.31;52.56;99104.13;1811984;78;21092;-62
2021/12/07 09:08:42;;;;;;;6.30;5.70;;;;;;;10.31;52.54;99100.66;1804610;78;21134;-61
2021/12/07 09:11:10;;;;;;;6.15;5.55;;;;;;;10.31;52.55;99095.35;1819467;78;21786;-62
2021/12/07 09:13:37;;;;;;;6.97;5.72;;;;;;;10.30;52.53;99089.23;1805990;78;21021;-62
2021/12/07 09:16:05;;;;;;;6.60;5.90;;;;;;;10.31;52.52;99082.08;1808617;78;21107;-62
2021/12/07 09:18:31;;;;;;;6.67;5.97;;;;;;;10.30;52.53;99067.98;1818136;78;21041;-61
2021/12/07 09:20:59;;;;;;;6.05;5.42;;;;;;;10.31;52.52;99073.60;1826145;77;21498;-62
2021/12/07 09:23:26;;;;;;;6.62;5.65;;;;;;;10.31;52.50;99070.13;1819644;77;21033;-61
2021/12/07 09:25:53;;;;;;;6.25;5.65;;;;;;;10.32;52.51;99075.27;1800685;78;21074;-60
2021/12/07 09:28:19;;;;;;;6.70;6.03;;;;;;;10.32;52.49;99063.83;1824365;78;21057;-62
2021/12/07 09:30:51;;;;;;;6.00;5.40;;;;;;;10.32;52.48;99070.47;1819674;78;21081;-61
2021/12/07 09:33:15;;;;;;;7.03;5.78;;;;;;;10.33;52.46;99068.12;1819972;78;21065;-62
2021/12/07 09:35:41;;;;;;;6.97;5.65;;;;;;;10.32;52.47;99063.31;1805034;78;21041;-62
2021/12/07 09:38:09;;;;;;;6.45;5.25;;;;;;;10.33;52.45;99062.30;1823652;78;21010;-62
2021/12/07 09:40:37;;;;;;;7.20;6.08;;;;;;;10.33;52.44;99063.63;1801060;78;21067;-61
2021/12/07 09:43:04;;;;;;;7.37;5.42;;;;;;;10.34;52.43;99052.52;1801741;79;21056;-62
2021/12/07 09:45:31;;;;;;;5.78;4.90;;;;;;;10.34;52.42;99045.88;1810374;79;21073;-62
2021/12/07 09:47:59;;;;;;;7.12;5.58;;;;;;;10.34;52.42;99046.70;1803675;79;21438;-62
2021/12/07 09:50:26;;;;;;;5.87;5.12;;;;;;;10.34;52.39;99050.69;1807080;78;21034;-60
2021/12/07 09:52:52;;;;;;;7.05;5.60;;;;;;;10.34;52.40;99053.85;1804702;79;21528;-61
2021/12/07 09:55:18;;;;;;;6.45;5.40;;;;;;;10.36;52.41;99058.47;1813406;79;21034;-62
2021/12/07 09:57:46;;;;;;;6.62;6.00;;;;;;;10.35;52.38;99059.46;1801016;77;21026;-61
2021/12/07 10:00:17;;;;;;;6.83;5.45;;;;;;;10.36;52.38;99057.95;1803610;79;21054;-61
2021/12/07 10:02:44;;;;;;;6.50;5.05;;;;;;;10.35;52.37;99046.19;1798011;78;21123;-62
2021/12/07 10:05:12;;;;;;;5.22;4.58;;;;;;;10.35;52.36;99036.41;1795821;78;21494;-60
2021/12/07 10:07:40;;;;;;;5.60;5.00;;;;;;;10.35;52.36;99039.07;1798656;79;21061;-61
2021/12/07 10:10:18;;;;;;;5.92;5.12;;;;;;;10.36;52.36;99035.91;1791500;79;22334;-61
2021/12/07 10:12:44;;;;;;;5.25;4.75;;;;;;;10.36;52.34;99045.20;1798062;77;21545;-61
2021/12/07 10:15:11;;;;;;;6.15;5.50;;;;;;;10.35;52.34;99039.07;1799237;77;21078;-61
2021/12/07 10:17:38;;;;;;;6.08;5.03;;;;;;;10.35;52.34;99033.77;1797104;78;21035;-63
2021/12/07 10:20:36;;;;;;;5.95;5.03;;;;;;;10.36;52.34;99039.89;1794583;77;21125;-62
2021/12/07 10:23:05;;;;;;;5.15;4.60;;;;;;;10.35;52.35;99037.74;1792918;78;21149;-62
2021/12/07 10:25:31;;;;;;;;;;;;;;;10.34;52.35;99037.41;1795069;78;21098;-60
2021/12/07 10:27:58;;;;;;;5.95;4.78;;;;;;;10.34;52.36;99041.39;1803551;78;20568;-63
2021/12/07 10:30:25;;;;;;;5.50;4.40;;;;;;;10.30;52.54;99042.77;1794264;78;22294;-62
2021/12/07 10:33:03;;;;;;;5.15;4.65;;;;;;;10.30;52.70;99038.78;1797178;78;21018;-60
2021/12/07 10:35:36;;;;;;;5.65;4.67;;;;;;;10.31;52.74;99041.74;1792586;78;21122;-62
2021/12/07 10:38:14;;;;;;;5.00;4.17;;;;;;;10.31;52.72;99045.73;1798606;77;21050;-61
2021/12/07 10:41:04;;;;;;;5.12;4.40;;;;;;;10.31;52.74;99042.25;1803863;78;21044;-60
2021/12/07 10:43:54;;;;;;;5.72;4.72;;;;;;;10.30;52.75;99046.75;1809200;77;21048;-60
2021/12/07 10:46:43;;;;;;;4.40;4.00;;;;;;;10.29;52.74;99034.95;1797580;78;21263;-63
2021/12/07 10:49:33;;;;;;;6.12;4.55;;;;;;;10.27;52.74;99031.66;1815416;78;21188;-61
2021/12/07 10:52:30;;;;;;;5.55;4.78;;;;;;;10.28;52.74;99031.99;1810594;78;21529;-62
2021/12/07 10:55:46;;;;;;;5.65;4.70;;;;;;;10.30;52.77;99021.53;1785573;78;28345;-61
2021/12/07 10:58:13;;;;;;;4.70;4.15;;;;;;;10.23;52.74;99019.25;1770689;78;21052;-62
2021/12/07 11:00:44;;;;;;;5.53;4.50;;;;;;;10.26;52.74;99026.86;1752566;79;21143;-62
2021/12/07 11:03:21;;;;;;;4.83;4.33;;;;;;;10.26;52.73;99033.98;1755867;79;21004;-63
2021/12/07 11:05:53;;;;;;;4.78;4.10;;;;;;;10.26;52.72;99030.84;1758654;81;21072;-61
2021/12/07 11:08:22;;;;;;;6.28;4.47;;;;;;;10.25;52.69;99029.17;1768811;79;21052;-63
2021/12/07 11:10:50;;;;;;;6.70;4.53;;;;;;;10.26;52.70;99034.82;1773003;79;21350;-62
2021/12/07 11:13:33;;;;;;;4.33;3.92;;;;;;;10.26;52.68;99035.30;1782498;80;21095;-61
2021/12/07 11:16:00;;;;;;;4.70;4.22;;;;;;;10.26;52.65;99028.19;1752798;80;21057;-62
2021/12/07 11:18:35;;;;;;;;;;;;;;;10.25;52.65;99033.16;1780831;78;21488;-62
2021/12/07 11:21:08;;;;;;;5.30;4.17;;;;;;;10.25;52.65;99033.16;1729601;81;20166;-61
2021/12/07 11:23:41;;;;;;;4.45;4.00;;;;;;;10.20;52.69;99037.70;1776443;78;21099;-62
2021/12/07 11:31:49;;;;;;;5.15;3.90;;;;;;;10.22;52.69;99052.95;1771827;79;21881;-63
2021/12/07 11:34:23;;;;;;;4.70;3.90;;;;;;;10.21;52.67;99043.83;1746920;80;21030;-60
2021/12/07 11:36:56;;;;;;;5.25;4.15;;;;;;;10.20;52.67;99044.85;1747097;81;21057;-62
2021/12/07 11:39:35;;;;;;;3.98;3.42;;;;;;;10.19;52.67;99041.86;1743269;81;21165;-60
2021/12/07 11:42:11;;;;;;;4.70;4.20;;;;;;;10.19;52.65;99040.02;1772153;79;21048;-63
2021/12/07 11:44:55;;;;;;;5.78;4.47;;;;;;;10.19;52.67;99024.61;1772992;79;21627;-62
2021/12/07 11:47:33;;;;;;;4.92;3.85;;;;;;;10.19;52.67;99024.09;1780202;79;21538;-62
2021/12/07 11:50:17;;;;;;;4.33;3.80;;;;;;;10.18;52.66;99024.30;1722449;81;21599;-63
2021/12/07 11:52:45;;;;;;;4.10;3.55;;;;;;;10.18;52.66;99030.94;1748360;80;21421;-61
2021/12/07 11:55:13;;;;;;;4.17;3.77;;;;;;;10.16;52.66;99020.50;1730655;80;21073;-62
2021/12/07 11:57:40;;;;;;;4.60;4.03;;;;;;;10.16;52.68;99018.33;1723652;81;21054;-62
2021/12/07 12:00:12;;;;;;;4.45;3.85;;;;;;;10.16;52.65;99017.00;1738089;81;21799;-62
2021/12/07 12:02:39;;;;;;;4.45;3.80;;;;;;;10.16;52.67;99019.66;1753713;80;21102;-62
2021/12/07 12:05:06;;;;;;;4.37;3.65;;;;;;;10.16;52.65;99017.84;1760029;80;21179;-63
2021/12/07 12:07:33;;;;;;;3.90;3.50;;;;;;;10.17;52.63;99013.35;1741263;81;21513;-62
2021/12/07 12:09:59;;;;;;;4.60;3.92;;;;;;;10.16;52.61;99022.31;1737610;81;21033;-62
2021/12/07 12:12:32;;;;;;;3.98;3.58;;;;;;;10.16;52.63;99033.77;1749038;80;21065;-62
2021/12/07 12:15:16;;;;;;;3.93;3.53;;;;;;;10.16;52.60;99040.41;1754856;80;21544;-62
2021/12/07 12:17:59;;;;;;;4.80;4.03;;;;;;;10.17;52.59;99050.52;1753682;80;21128;-63
2021/12/07 12:20:39;;;;;;;3.77;3.45;;;;;;;10.15;52.61;99052.02;1750570;80;21038;-61
2021/12/07 12:23:22;;;;;;;5.75;3.55;;;;;;;10.15;52.59;99053.34;1757786;80;21502;-61
2021/12/07 12:25:56;;;;;;;3.90;3.55;;;;;;;10.13;52.60;99055.36;1733881;80;21038;-61
2021/12/07 12:28:26;;;;;;;4.17;3.47;;;;;;;10.13;52.61;99050.05;1751887;80;21018;-60
2021/12/07 12:30:53;;;;;;;3.95;3.55;;;;;;;10.13;52.60;99058.52;1743133;80;21814;-61
2021/12/07 12:33:19;;;;;;;4.90;4.08;;;;;;;10.12;52.61;99061.69;1748278;80;21086;-61
2021/12/07 12:35:52;;;;;;;4.78;3.85;;;;;;;10.12;52.61;99070.13;1744744;80;21116;-60
2021/12/07 12:38:30;;;;;;;4.85;4.35;;;;;;;10.12;52.61;99070.13;1757526;80;21026;-60
2021/12/07 12:41:00;;;;;;;4.55;3.70;;;;;;;10.12;52.61;99071.45;1750303;80;21045;-61
2021/12/07 12:43:41;;;;;;;3.75;3.40;;;;;;;10.12;52.61;99069.65;1753123;80;21144;-62
2021/12/07 12:46:09;;;;;;;4.55;3.92;;;;;;;10.11;52.61;99067.17;1751077;80;21023;-62
2021/12/07 12:48:36;;;;;;;4.40;3.92;;;;;;;10.11;52.58;99061.86;1746104;80;21030;-62
2021/12/07 12:51:04;;;;;;;4.17;3.75;;;;;;;10.10;52.60;99057.06;1751565;80;21025;-62
2021/12/07 12:53:34;;;;;;;4.17;3.58;;;;;;;10.10;52.61;99061.53;1748594;80;21022;-62
2021/12/07 12:56:08;;;;;;;3.95;3.47;;;;;;;10.09;52.59;99064.69;1763624;80;22137;-62
2021/12/07 12:58:42;;;;;;;4.75;3.52;;;;;;;10.10;52.59;99062.85;1770118;80;21010;-61
2021/12/07 13:01:22;;;;;;;4.67;3.92;;;;;;;10.10;52.63;99061.53;1780751;80;21042;-61
2021/12/07 13:04:06;;;;;;;4.85;3.83;;;;;;;10.11;52.93;99063.19;1757397;80;21025;-63
2021/12/07 13:06:50;;;;;;;6.53;4.28;;;;;;;10.12;55.04;99064.34;1759895;80;21045;-63
2021/12/07 13:09:22;;;;;;;4.62;4.05;;;;;;;10.14;56.23;99061.48;1768102;80;21175;-61
2021/12/07 13:12:10;;;;;;;6.92;4.42;;;;;;;10.14;56.66;99069.44;1768173;80;21036;-62
2021/12/07 13:14:46;;;;;;;10.08;5.17;;;;;;;10.14;56.86;99064.13;1730601;82;21069;-63
2021/12/07 13:17:24;;;;;;;5.58;4.67;;;;;;;10.13;56.91;99067.81;1747802;81;21016;-62
2021/12/07 13:20:14;;;;;;;6.45;4.72;;;;;;;10.11;56.85;99056.05;1748970;81;21055;-61
2021/12/07 13:23:03;;;;;;;5.78;4.97;;;;;;;10.11;56.76;99052.06;1723437;81;21149;-62